createdAt,value
2023-03-22T00:00:15.566Z,25.40
2023-03-22T00:05:40.174Z,30.50
2023-03-22T00:10:43.175Z,26.90
2023-03-22T00:15:49.326Z,26.30
2023-03-22T00:20:54.920Z,19.90
2023-03-22T00:25:58.028Z,28.70
2023-03-22T00:31:02.647Z,31.00
2023-03-22T00:36:08.923Z,23.40
2023-03-22T00:41:14.729Z,27.90
2023-03-22T00:46:20.736Z,24.20
2023-03-22T00:51:24.571Z,32.10
2023-03-22T00:56:29.142Z,29.20
2023-03-22T01:01:32.556Z,32.80
2023-03-22T01:06:35.802Z,37.60
2023-03-22T01:11:38.709Z,29.80
2023-03-22T01:16:41.887Z,37.50
2023-03-22T01:21:45.085Z,33.80
2023-03-22T01:26:48.342Z,29.60
2023-03-22T01:31:52.312Z,25.90
2023-03-22T01:36:55.375Z,31.70
2023-03-22T01:41:58.693Z,28.90
2023-03-22T01:47:01.803Z,26.80
2023-03-22T01:52:14.847Z,32.40
2023-03-22T01:57:18.676Z,28.80
2023-03-22T02:02:22.350Z,24.30
2023-03-22T02:07:28.574Z,28.10
2023-03-22T02:12:46.735Z,34.10
2023-03-22T02:18:46.064Z,32.70
2023-03-22T02:24:07.502Z,34.00
2023-03-22T02:29:23.109Z,33.00
2023-03-22T02:34:32.883Z,31.20
2023-03-22T02:39:38.945Z,32.90
2023-03-22T02:44:51.793Z,33.70
2023-03-22T02:50:36.797Z,43.20
2023-03-22T02:55:49.497Z,34.60
2023-03-22T03:00:57.637Z,27.80
2023-03-22T03:06:08.629Z,29.70
2023-03-22T03:11:11.943Z,36.70
2023-03-22T03:16:17.670Z,33.30
2023-03-22T03:21:30.384Z,25.70
2023-03-22T03:26:53.741Z,29.10
2023-03-22T03:32:04.470Z,24.90
2023-03-22T03:42:16.679Z,21.60
2023-03-22T03:47:21.114Z,25.00
2023-03-22T03:52:24.738Z,33.90
2023-03-22T03:57:27.642Z,28.70
2023-03-22T04:02:30.777Z,36.10
2023-03-22T04:07:34.377Z,36.80
2023-03-22T04:12:37.516Z,34.10
2023-03-22T04:17:40.643Z,32.90
2023-03-22T04:22:45.029Z,35.30
2023-03-22T04:27:51.298Z,30.60
2023-03-22T04:32:54.941Z,31.30
2023-03-22T04:37:59.478Z,30.20
2023-03-22T04:43:04.240Z,33.20
2023-03-22T04:48:08.107Z,32.70
2023-03-22T04:53:12.610Z,32.60
2023-03-22T04:58:16.724Z,35.00
2023-03-22T05:03:21.757Z,35.00
2023-03-22T05:08:27.145Z,35.40
2023-03-22T05:13:30.145Z,36.30
2023-03-22T05:18:33.460Z,32.60
2023-03-22T05:23:36.468Z,30.70
2023-03-22T05:28:39.573Z,32.40
2023-03-22T05:33:42.990Z,32.40
2023-03-22T05:38:46.928Z,38.80
2023-03-22T05:43:51.168Z,35.70
2023-03-22T05:48:54.167Z,33.20
2023-03-22T05:53:57.146Z,35.50
2023-03-22T05:59:00.176Z,33.30
2023-03-22T06:04:04.010Z,33.30
2023-03-22T06:09:16.976Z,35.70
2023-03-22T06:14:20.978Z,33.80
2023-03-22T06:19:25.830Z,32.60
2023-03-22T06:24:28.940Z,34.30
2023-03-22T06:29:32.325Z,37.20
2023-03-22T06:34:35.866Z,38.20
2023-03-22T06:39:38.975Z,34.20
2023-03-22T06:44:44.123Z,37.70
2023-03-22T06:49:47.236Z,34.10
2023-03-22T06:54:50.338Z,38.70
2023-03-22T06:59:53.755Z,39.00
2023-03-22T07:04:56.762Z,39.20
2023-03-22T07:09:59.870Z,34.70
2023-03-22T07:15:03.519Z,35.30
2023-03-22T07:20:07.274Z,44.70
2023-03-22T07:25:11.150Z,35.30
2023-03-22T07:30:14.461Z,36.70
2023-03-22T07:35:19.018Z,40.60
2023-03-22T07:40:23.234Z,37.80
2023-03-22T07:45:26.404Z,36.50
2023-03-22T07:50:29.539Z,47.80
2023-03-22T07:55:32.882Z,40.50
2023-03-22T08:00:35.989Z,44.50
2023-03-22T08:05:43.715Z,50.30
2023-03-22T08:10:51.357Z,50.60
2023-03-22T08:15:54.357Z,52.70
2023-03-22T08:20:59.194Z,50.50
2023-03-22T08:26:02.190Z,50.60
2023-03-22T08:31:15.119Z,59.90
2023-03-22T08:36:23.059Z,54.00
2023-03-22T08:41:26.053Z,61.60
2023-03-22T08:46:29.180Z,57.00
2023-03-22T08:51:32.367Z,49.40
2023-03-22T08:56:38.373Z,45.60
2023-03-22T09:01:41.619Z,41.80
2023-03-22T09:06:45.788Z,42.50
2023-03-22T09:11:48.895Z,44.70
2023-03-22T09:16:52.110Z,41.50
2023-03-22T09:21:55.317Z,48.50
2023-03-22T09:26:58.831Z,54.50
2023-03-22T09:32:01.943Z,54.20
2023-03-22T09:37:05.152Z,58.20
2023-03-22T09:42:24.238Z,54.70
2023-03-22T09:47:44.195Z,54.40
2023-03-22T09:52:48.758Z,55.90
2023-03-22T09:58:20.100Z,53.60
2023-03-22T10:03:54.677Z,59.40
2023-03-22T10:08:57.719Z,63.40
2023-03-22T10:14:07.995Z,55.60
2023-03-22T10:19:24.624Z,59.80
2023-03-22T10:24:34.258Z,59.30
2023-03-22T10:29:43.706Z,69.50
2023-03-22T10:34:47.518Z,60.40
2023-03-22T10:39:57.182Z,63.60
2023-03-22T10:45:07.474Z,65.10
2023-03-22T10:50:22.999Z,60.70
2023-03-22T10:55:26.625Z,62.90
2023-03-22T11:00:29.965Z,59.70
2023-03-22T11:05:33.250Z,60.90
2023-03-22T11:10:36.691Z,55.90
2023-03-22T11:15:49.090Z,54.30
2023-03-22T11:21:17.389Z,57.30
2023-03-22T11:26:27.775Z,66.10
2023-03-22T11:31:56.072Z,55.10
2023-03-22T11:37:08.477Z,61.30
2023-03-22T11:42:21.147Z,62.20
2023-03-22T11:47:30.515Z,64.10
2023-03-22T11:52:33.908Z,53.60
2023-03-22T11:57:38.134Z,56.20
2023-03-22T12:02:51.793Z,59.10
2023-03-22T12:08:18.043Z,55.80
2023-03-22T12:13:27.859Z,52.60
2023-03-22T12:18:44.812Z,57.50
2023-03-22T12:23:48.055Z,48.60
2023-03-22T12:28:56.510Z,56.10
2023-03-22T12:34:07.501Z,48.50
2023-03-22T12:39:24.318Z,59.10
2023-03-22T12:44:34.296Z,54.70
2023-03-22T12:50:00.457Z,65.70
2023-03-22T12:55:06.279Z,57.30
2023-03-22T13:00:16.130Z,52.70
2023-03-22T13:05:19.691Z,56.90
2023-03-22T13:10:32.605Z,54.90
2023-03-22T13:15:42.242Z,48.30
2023-03-22T13:21:14.787Z,55.60
2023-03-22T13:26:19.739Z,51.90
2023-03-22T13:31:38.930Z,53.80
2023-03-22T13:36:50.032Z,60.80
2023-03-22T13:42:06.111Z,61.00
2023-03-22T13:47:43.955Z,103.40
2023-03-22T13:53:14.808Z,66.70
2023-03-22T13:58:48.562Z,69.20
2023-03-22T14:03:52.145Z,56.70
2023-03-22T14:09:02.354Z,53.20
2023-03-22T14:14:13.137Z,70.40
2023-03-22T14:19:21.414Z,81.30
